createdAt,value
2022-11-13T00:01:15.118Z,99193.66
2022-11-13T00:04:04.369Z,99196.08
2022-11-13T00:06:57.864Z,99190.11
2022-11-13T00:09:48.445Z,99186.27
2022-11-13T00:12:38.584Z,99188.33
2022-11-13T00:15:27.643Z,99178.27
2022-11-13T00:18:16.486Z,99175.73
2022-11-13T00:21:13.014Z,99178.35
2022-11-13T00:24:01.970Z,99175.30
2022-11-13T00:26:54.448Z,99176.00
2022-11-13T00:29:45.597Z,99181.55
2022-11-13T00:32:34.650Z,99180.79
2022-11-13T00:35:26.334Z,99179.00
2022-11-13T00:38:17.265Z,99177.37
2022-11-13T00:41:05.189Z,99171.24
2022-11-13T00:43:56.576Z,99173.83
2022-11-13T00:46:45.011Z,99174.18
2022-11-13T00:49:33.539Z,99170.08
2022-11-13T00:52:25.576Z,99164.27
2022-11-13T00:55:13.798Z,99162.55
2022-11-13T00:58:01.759Z,99158.10
2022-11-13T01:00:50.188Z,99157.96
2022-11-13T01:03:39.366Z,99156.09
2022-11-13T01:06:28.388Z,99154.22
2022-11-13T01:09:16.703Z,99150.98
2022-11-13T01:12:05.176Z,99146.53
2022-11-13T01:14:52.748Z,99149.10
2022-11-13T01:17:41.437Z,99149.61
2022-11-13T01:20:29.597Z,99147.91
2022-11-13T01:23:17.484Z,99147.75
2022-11-13T01:26:12.464Z,99152.39
2022-11-13T01:29:01.658Z,99150.84
2022-11-13T01:31:50.197Z,99154.11
2022-11-13T01:34:38.271Z,99153.42
2022-11-13T01:37:26.690Z,99152.89
2022-11-13T01:40:19.716Z,99152.91
2022-11-13T01:43:24.852Z,99146.17
2022-11-13T01:46:36.057Z,99141.36
2022-11-13T01:49:43.870Z,99135.83
2022-11-13T01:52:36.728Z,99136.87
2022-11-13T01:55:33.216Z,99133.59
2022-11-13T01:58:21.509Z,99128.80
2022-11-13T02:01:09.486Z,99124.01
2022-11-13T02:03:57.437Z,99120.73
2022-11-13T02:06:49.281Z,99114.38
2022-11-13T02:09:41.134Z,99112.47
2022-11-13T02:12:38.079Z,99112.98
2022-11-13T02:15:28.059Z,99111.60
2022-11-13T02:18:19.178Z,99113.13
2022-11-13T02:21:18.256Z,99108.14
2022-11-13T02:24:16.587Z,99104.71
2022-11-13T02:27:11.287Z,99103.16
2022-11-13T02:29:59.427Z,99105.67
2022-11-13T02:32:52.038Z,99102.39
2022-11-13T02:35:40.707Z,99099.94
2022-11-13T02:38:30.498Z,99095.61
2022-11-13T02:41:18.588Z,99093.55
2022-11-13T02:44:07.586Z,99095.79
2022-11-13T02:46:55.767Z,99094.75
2022-11-13T02:49:43.978Z,99095.97
2022-11-13T02:52:32.508Z,99094.93
2022-11-13T02:55:20.649Z,99094.59
2022-11-13T02:58:11.576Z,99095.45
2022-11-13T03:01:01.073Z,99097.86
2022-11-13T03:03:57.391Z,99097.52
2022-11-13T03:06:46.406Z,99103.54
2022-11-13T03:09:34.840Z,99100.80
2022-11-13T03:12:23.336Z,99100.64
2022-11-13T03:15:12.359Z,99101.15
2022-11-13T03:18:03.886Z,99098.75
2022-11-13T03:20:53.807Z,99102.98
2022-11-13T03:23:44.567Z,99108.43
2022-11-13T03:26:32.556Z,99111.70
2022-11-13T03:29:20.444Z,99112.08
2022-11-13T03:32:08.866Z,99108.84
2022-11-13T03:34:56.739Z,99107.29
2022-11-13T03:37:45.019Z,99110.89
2022-11-13T03:40:33.184Z,99118.10
2022-11-13T03:43:21.124Z,99115.52
2022-11-13T03:46:09.245Z,99107.23
2022-11-13T03:48:57.224Z,99105.10
2022-11-13T03:51:45.804Z,99116.27
2022-11-13T03:54:34.463Z,99122.83
2022-11-13T03:57:22.525Z,99121.83
2022-11-13T04:00:13.566Z,99118.89
2022-11-13T04:03:01.702Z,99119.22
2022-11-13T04:05:50.695Z,99118.86
2022-11-13T04:08:40.805Z,99119.16
2022-11-13T04:11:28.722Z,99119.66
2022-11-13T04:14:19.706Z,99118.98
2022-11-13T04:17:07.503Z,99120.70
2022-11-13T04:19:56.135Z,99122.38
2022-11-13T04:22:44.455Z,99128.70
2022-11-13T04:25:32.434Z,99131.84
2022-11-13T04:28:20.797Z,99132.55
2022-11-13T04:31:09.945Z,99133.89
2022-11-13T04:33:57.924Z,99132.35
2022-11-13T04:36:46.315Z,99129.44
2022-11-13T04:39:35.102Z,99118.63
2022-11-13T04:42:40.346Z,99115.02
2022-11-13T04:45:28.783Z,99116.19
2022-11-13T04:48:17.165Z,99114.35
2022-11-13T04:51:07.716Z,99110.39
2022-11-13T04:53:55.470Z,99105.76
2022-11-13T04:56:43.677Z,99108.16
2022-11-13T04:59:31.622Z,99111.55
2022-11-13T05:02:19.756Z,99112.08
2022-11-13T05:05:10.832Z,99118.79
2022-11-13T05:07:58.622Z,99120.20
2022-11-13T05:10:46.915Z,99115.56
2022-11-13T05:13:36.680Z,99112.65
2022-11-13T05:16:24.714Z,99106.94
2022-11-13T05:19:12.763Z,99109.52
2022-11-13T05:22:01.302Z,99112.13
2022-11-13T05:24:49.406Z,99104.21
2022-11-13T05:27:37.875Z,99104.58
2022-11-13T05:30:26.231Z,99106.59
2022-11-13T05:33:15.092Z,99101.27
2022-11-13T05:36:04.692Z,99096.48
2022-11-13T05:38:53.633Z,99100.10
2022-11-13T05:41:41.634Z,99105.08
2022-11-13T05:44:29.373Z,99102.45
2022-11-13T05:47:19.475Z,99098.59
2022-11-13T05:50:11.231Z,99099.27
2022-11-13T05:53:02.084Z,99103.02
2022-11-13T05:55:50.144Z,99102.34
2022-11-13T05:58:38.930Z,99100.14
2022-11-13T06:01:28.928Z,99105.67
2022-11-13T06:04:16.662Z,99110.30
2022-11-13T06:07:04.815Z,99112.57
2022-11-13T06:09:52.942Z,99117.07
2022-11-13T06:12:43.094Z,99114.05
2022-11-13T06:15:31.274Z,99110.51
2022-11-13T06:18:26.531Z,99109.16
2022-11-13T06:21:17.045Z,99106.70
2022-11-13T06:24:06.722Z,99109.60
2022-11-13T06:26:54.762Z,99104.26
2022-11-13T06:29:43.183Z,99107.70
2022-11-13T06:32:31.571Z,99107.58
2022-11-13T06:35:19.712Z,99106.92
2022-11-13T06:38:08.072Z,99103.70
2022-11-13T06:40:56.774Z,99106.25
2022-11-13T06:43:45.032Z,99101.14
2022-11-13T06:46:32.894Z,99100.73
2022-11-13T06:49:21.403Z,99100.80
2022-11-13T06:52:09.553Z,99096.89
2022-11-13T06:54:57.252Z,99095.06
2022-11-13T06:57:45.094Z,99098.30
2022-11-13T07:00:36.697Z,99096.07
2022-11-13T07:03:27.486Z,99093.70
2022-11-13T07:06:21.313Z,99093.23
2022-11-13T07:09:09.567Z,99099.02
2022-11-13T07:11:57.835Z,99099.89
2022-11-13T07:14:47.733Z,99104.62
2022-11-13T07:17:35.846Z,99104.63
2022-11-13T07:20:27.797Z,99101.34
2022-11-13T07:23:15.736Z,99094.50
2022-11-13T07:26:03.833Z,99100.83
2022-11-13T07:29:12.974Z,99100.84
2022-11-13T07:32:01.443Z,99096.93
2022-11-13T07:34:49.396Z,99099.54
2022-11-13T07:37:37.584Z,99100.51
2022-11-13T07:40:27.563Z,99100.46
2022-11-13T07:43:16.355Z,99100.31
2022-11-13T07:46:04.137Z,99107.36
2022-11-13T07:48:55.644Z,99109.78
2022-11-13T07:51:43.911Z,99107.95
2022-11-13T07:54:31.956Z,99113.41
2022-11-13T07:57:22.516Z,99114.79
2022-11-13T08:00:12.350Z,99111.13
2022-11-13T08:03:05.744Z,99114.23
2022-11-13T08:05:59.866Z,99115.43
2022-11-13T08:08:48.014Z,99113.08
2022-11-13T08:11:36.666Z,99116.30
2022-11-13T08:14:24.714Z,99119.76
2022-11-13T08:17:17.286Z,99119.70
2022-11-13T08:20:11.924Z,99122.55
2022-11-13T08:23:06.296Z,99123.66
2022-11-13T08:25:55.471Z,99119.64
2022-11-13T08:28:46.456Z,99122.77
2022-11-13T08:31:34.543Z,99127.90
2022-11-13T08:34:22.600Z,99125.77
2022-11-13T08:37:11.067Z,99120.89
2022-11-13T08:40:11.488Z,99122.19
2022-11-13T08:43:02.446Z,99123.10
2022-11-13T08:45:50.870Z,99126.27
2022-11-13T08:48:41.625Z,99125.20
2022-11-13T08:51:29.807Z,99120.85
2022-11-13T08:54:21.078Z,99116.95
2022-11-13T08:57:09.223Z,99113.60
2022-11-13T09:00:01.285Z,99116.27
2022-11-13T09:02:53.646Z,99116.46
2022-11-13T09:05:41.761Z,99122.48
2022-11-13T09:08:32.336Z,99122.85
2022-11-13T09:11:20.294Z,99129.30
2022-11-13T09:14:09.114Z,99126.08
2022-11-13T09:16:58.195Z,99122.14
2022-11-13T09:19:47.089Z,99124.80
2022-11-13T09:22:36.134Z,99129.02
2022-11-13T09:25:25.444Z,99127.98
2022-11-13T09:28:13.764Z,99126.63
2022-11-13T09:31:05.816Z,99124.44
2022-11-13T09:33:54.895Z,99120.46
2022-11-13T09:36:43.096Z,99119.98
2022-11-13T09:39:31.029Z,99123.46
2022-11-13T09:42:23.837Z,99115.42
2022-11-13T09:45:15.973Z,99108.77
2022-11-13T09:48:17.575Z,99106.60
2022-11-13T09:51:13.101Z,99102.17
2022-11-13T09:54:05.479Z,99101.06
2022-11-13T09:56:57.990Z,99099.98
2022-11-13T09:59:52.389Z,99097.93
2022-11-13T10:02:50.572Z,99095.09
2022-11-13T10:05:45.526Z,99097.05
2022-11-13T10:08:52.744Z,99096.91
2022-11-13T10:11:44.454Z,99096.52
2022-11-13T10:14:38.667Z,99099.60
2022-11-13T10:17:33.983Z,99094.38
2022-11-13T10:20:25.738Z,99089.25
2022-11-13T10:23:19.434Z,99085.20
2022-11-13T10:26:15.696Z,99085.48
2022-11-13T10:29:11.788Z,99083.55
2022-11-13T10:32:11.185Z,99078.10
2022-11-13T10:35:18.146Z,99079.95
2022-11-13T10:38:12.859Z,99079.95
2022-11-13T10:41:12.707Z,99074.12
2022-11-13T10:44:19.608Z,99071.61
2022-11-13T10:47:26.549Z,99072.44
2022-11-13T10:50:25.653Z,99070.94
2022-11-13T10:53:18.917Z,99064.92
2022-11-13T10:56:22.044Z,99062.69
2022-11-13T10:59:18.889Z,99056.30
2022-11-13T11:02:21.495Z,99061.53
2022-11-13T11:05:19.596Z,99062.42
2022-11-13T11:08:11.129Z,99062.49
2022-11-13T11:11:19.687Z,99054.73
2022-11-13T11:14:20.045Z,99054.83
2022-11-13T11:17:11.285Z,99056.55
2022-11-13T11:20:03.046Z,99058.32
2022-11-13T11:22:54.435Z,99055.27
2022-11-13T11:25:48.830Z,99057.15
2022-11-13T11:28:43.406Z,99057.57
2022-11-13T11:31:37.164Z,99057.76
2022-11-13T11:34:32.147Z,99055.88
2022-11-13T11:37:22.795Z,99052.65
2022-11-13T11:40:20.904Z,99048.48
2022-11-13T11:43:18.265Z,99050.08
2022-11-13T11:46:10.545Z,99039.98
2022-11-13T11:49:01.608Z,99039.41
2022-11-13T11:51:58.745Z,99035.15
2022-11-13T11:55:01.993Z,99032.42
2022-11-13T11:57:58.325Z,99029.98
2022-11-13T12:00:52.947Z,99021.28
2022-11-13T12:04:01.426Z,99014.64
2022-11-13T12:07:02.184Z,99013.37
2022-11-13T12:10:00.497Z,99012.10
2022-11-13T12:12:59.045Z,99011.96
2022-11-13T12:15:52.452Z,99017.50
2022-11-13T12:18:55.256Z,99013.98
2022-11-13T12:21:52.036Z,99011.42
2022-11-13T12:24:57.774Z,99008.52
2022-11-13T12:27:53.496Z,99006.45
2022-11-13T12:30:49.996Z,99009.38
2022-11-13T12:33:47.675Z,99007.86
2022-11-13T12:36:36.167Z,98999.51
2022-11-13T12:39:40.279Z,98993.16
2022-11-13T12:42:35.434Z,98993.30
2022-11-13T12:45:34.302Z,98990.00
2022-11-13T12:48:32.552Z,98991.55
2022-11-13T12:51:21.007Z,98985.27
2022-11-13T12:54:14.595Z,98980.27
2022-11-13T12:57:18.150Z,98978.58
2022-11-13T13:00:27.659Z,98967.41
2022-11-13T13:03:42.625Z,98964.63
2022-11-13T13:06:49.972Z,98968.50
2022-11-13T13:09:53.769Z,98967.89
2022-11-13T13:12:53.744Z,98965.67
2022-11-13T13:15:46.696Z,98962.27
2022-11-13T13:18:37.686Z,98954.55
2022-11-13T13:21:25.813Z,98954.59
2022-11-13T13:24:30.325Z,98959.56
2022-11-13T13:27:26.192Z,98960.04
2022-11-13T13:30:19.733Z,98962.22
2022-11-13T13:33:20.976Z,98960.39
2022-11-13T13:36:21.043Z,98956.06
2022-11-13T13:39:20.655Z,98960.70
2022-11-13T13:42:22.787Z,98960.06
2022-11-13T13:45:27.242Z,98955.61
2022-11-13T13:48:19.519Z,98949.92
2022-11-13T13:51:17.586Z,98949.56
2022-11-13T13:54:09.174Z,98946.35
2022-11-13T13:56:58.533Z,98936.92
2022-11-13T13:59:46.727Z,98935.55
2022-11-13T14:02:45.004Z,98937.91
2022-11-13T14:05:36.074Z,98939.11
2022-11-13T14:08:26.853Z,98936.88
2022-11-13T14:11:20.871Z,98941.67
2022-11-13T14:14:10.813Z,98943.07
2022-11-13T14:17:01.222Z,98938.09
2022-11-13T14:19:52.267Z,98944.93
2022-11-13T14:22:41.937Z,98943.03
2022-11-13T14:25:30.457Z,98935.33
2022-11-13T14:28:20.566Z,98932.75
2022-11-13T14:31:14.543Z,98928.13
2022-11-13T14:34:11.225Z,98925.55
2022-11-13T14:37:12.531Z,98922.88
2022-11-13T14:40:03.033Z,98923.01
2022-11-13T14:42:57.526Z,98923.75
2022-11-13T14:45:55.376Z,98922.40
2022-11-13T14:48:54.511Z,98920.64
2022-11-13T14:51:42.828Z,98921.23
2022-11-13T14:57:52.103Z,98925.90
2022-11-13T15:00:40.254Z,98923.55
2022-11-13T15:03:29.579Z,98927.15
2022-11-13T15:06:20.246Z,98925.98
2022-11-13T15:09:13.359Z,98920.66
2022-11-13T15:12:01.474Z,98919.16
2022-11-13T15:14:49.457Z,98918.98
2022-11-13T15:17:38.274Z,98923.80
2022-11-13T15:20:28.805Z,98926.18
2022-11-13T15:23:17.507Z,98924.60
2022-11-13T15:26:05.983Z,98919.61
2022-11-13T15:28:54.719Z,98918.15
2022-11-13T15:31:44.246Z,98915.96
2022-11-13T15:34:32.644Z,98912.66
2022-11-13T15:37:20.785Z,98905.98
2022-11-13T15:40:10.297Z,98904.15
2022-11-13T15:43:01.017Z,98908.17
2022-11-13T15:45:49.207Z,98907.21
2022-11-13T15:48:37.413Z,98909.14
2022-11-13T15:51:30.387Z,98908.58
2022-11-13T15:54:25.056Z,98910.91
2022-11-13T15:57:18.537Z,98905.05
2022-11-13T16:00:15.971Z,98901.60
2022-11-13T16:03:10.864Z,98901.04
2022-11-13T16:05:59.606Z,98904.33
2022-11-13T16:08:48.373Z,98910.84
2022-11-13T16:11:36.766Z,98912.84
2022-11-13T16:14:25.550Z,98908.00
2022-11-13T16:17:16.257Z,98912.16
2022-11-13T16:20:07.552Z,98918.02
2022-11-13T16:22:58.543Z,98912.17
2022-11-13T16:25:49.313Z,98909.52
2022-11-13T16:29:07.379Z,98907.67
2022-11-13T16:31:50.954Z,98912.53
2022-11-13T16:34:39.325Z,98916.11
2022-11-13T16:37:27.933Z,98916.55
2022-11-13T16:40:22.265Z,98918.23
2022-11-13T16:43:13.343Z,98919.41
2022-11-13T16:46:05.291Z,98918.80
2022-11-13T16:48:54.664Z,98913.30
2022-11-13T16:51:42.833Z,98910.92
2022-11-13T16:54:30.853Z,98907.17
2022-11-13T16:57:19.629Z,98906.31
2022-11-13T17:00:11.667Z,98903.27
2022-11-13T17:02:59.871Z,98902.58
2022-11-13T17:05:52.566Z,98898.23
2022-11-13T17:08:40.992Z,98898.38
2022-11-13T17:11:30.229Z,98898.55
2022-11-13T17:14:18.537Z,98897.36
2022-11-13T17:17:11.053Z,98892.26
2022-11-13T17:20:02.074Z,98890.88
2022-11-13T17:22:52.132Z,98895.59
2022-11-13T17:25:39.822Z,98894.11
2022-11-13T17:28:28.151Z,98889.97
2022-11-13T17:31:16.246Z,98885.89
2022-11-13T17:34:04.686Z,98892.22
2022-11-13T17:36:54.274Z,98891.39
2022-11-13T17:39:42.065Z,98895.23
2022-11-13T17:42:29.924Z,98889.67
2022-11-13T17:45:18.655Z,98887.45
2022-11-13T17:48:07.272Z,98891.61
2022-11-13T17:50:59.529Z,98892.02
2022-11-13T17:53:47.676Z,98893.94
2022-11-13T17:56:38.748Z,98894.45
2022-11-13T17:59:28.684Z,98898.77
2022-11-13T18:02:18.486Z,98896.33
2022-11-13T18:05:10.494Z,98894.34
2022-11-13T18:07:58.987Z,98892.66
2022-11-13T18:10:46.846Z,98892.55
2022-11-13T18:13:34.995Z,98892.59
2022-11-13T18:16:25.678Z,98894.15
2022-11-13T18:19:14.284Z,98888.52
2022-11-13T18:22:02.784Z,98889.14
2022-11-13T18:24:56.875Z,98886.90
2022-11-13T18:27:50.520Z,98882.98
2022-11-13T18:30:46.107Z,98882.80
2022-11-13T18:33:34.804Z,98888.84
2022-11-13T18:36:32.378Z,98889.98
2022-11-13T18:39:21.407Z,98888.07
2022-11-13T18:42:13.173Z,98885.48
2022-11-13T18:45:08.793Z,98883.88
2022-11-13T18:48:04.116Z,98885.84
2022-11-13T18:51:00.171Z,98892.19
2022-11-13T18:53:53.775Z,98892.70
2022-11-13T18:56:47.466Z,98889.54
2022-11-13T18:59:42.960Z,98892.35
2022-11-13T19:02:44.008Z,98889.99
2022-11-13T19:05:38.556Z,98887.20
2022-11-13T19:08:29.344Z,98886.77
2022-11-13T19:11:23.748Z,98882.43
2022-11-13T19:14:20.057Z,98883.30
2022-11-13T19:17:20.590Z,98883.84
2022-11-13T19:20:28.899Z,98884.00
2022-11-13T19:23:59.417Z,98886.14
2022-11-13T19:27:04.958Z,98878.12
2022-11-13T19:30:15.622Z,98873.97
2022-11-13T19:33:16.942Z,98869.94
2022-11-13T19:36:15.407Z,98865.02
2022-11-13T19:39:22.052Z,98869.85
2022-11-13T19:42:31.440Z,98868.56
2022-11-13T19:46:01.525Z,98865.34
2022-11-13T19:49:05.021Z,98865.20
2022-11-13T19:52:06.613Z,98864.95
2022-11-13T19:54:56.807Z,98865.13
2022-11-13T19:57:46.315Z,98866.75
2022-11-13T20:00:52.606Z,98870.44
2022-11-13T20:03:41.845Z,98871.46
2022-11-13T20:06:32.846Z,98869.77
2022-11-13T20:09:21.377Z,98868.41
2022-11-13T20:12:09.894Z,98866.45
2022-11-13T20:14:57.990Z,98866.68
2022-11-13T20:17:46.207Z,98863.48
2022-11-13T20:20:34.658Z,98862.41
2022-11-13T20:23:28.834Z,98863.45
2022-11-13T20:26:16.805Z,98861.91
2022-11-13T20:29:04.917Z,98862.42
2022-11-13T20:31:53.135Z,98868.69
2022-11-13T20:34:41.359Z,98873.20
2022-11-13T20:37:29.324Z,98869.14
2022-11-13T20:40:19.186Z,98866.95
2022-11-13T20:43:09.504Z,98865.33
2022-11-13T20:46:04.205Z,98857.98
2022-11-13T20:48:55.702Z,98853.35
2022-11-13T20:51:44.096Z,98851.27
2022-11-13T20:54:32.357Z,98847.66
2022-11-13T20:57:20.884Z,98848.82
2022-11-13T21:00:11.624Z,98848.54
2022-11-13T21:03:00.044Z,98851.66
2022-11-13T21:05:48.197Z,98854.23
2022-11-13T21:08:38.002Z,98853.17
2022-11-13T21:11:29.705Z,98855.80
2022-11-13T21:14:17.705Z,98853.06
2022-11-13T21:17:06.243Z,98850.58
2022-11-13T21:19:57.511Z,98846.29
2022-11-13T21:22:47.616Z,98845.94
2022-11-13T21:25:38.647Z,98841.61
2022-11-13T21:28:32.409Z,98839.52
2022-11-13T21:31:22.388Z,98842.66
2022-11-13T21:34:13.648Z,98842.89
2022-11-13T21:37:01.882Z,98846.77
2022-11-13T21:39:50.117Z,98840.00
2022-11-13T21:42:38.467Z,98835.27
2022-11-13T21:45:26.360Z,98831.98
2022-11-13T21:48:15.566Z,98823.77
2022-11-13T21:51:03.286Z,98829.95
2022-11-13T21:53:51.555Z,98820.80
2022-11-13T21:56:41.447Z,98826.30
2022-11-13T21:59:30.647Z,98824.42
2022-11-13T22:02:18.576Z,98826.50
2022-11-13T22:05:07.988Z,98829.63
2022-11-13T22:07:56.150Z,98830.02
2022-11-13T22:10:43.957Z,98826.17
2022-11-13T22:13:32.511Z,98824.76
2022-11-13T22:16:21.217Z,98821.84
2022-11-13T22:19:12.509Z,98820.02
2022-11-13T22:22:00.345Z,98818.49
2022-11-13T22:24:48.097Z,98816.41
2022-11-13T22:27:40.072Z,98814.52
2022-11-13T22:30:28.031Z,98809.77
2022-11-13T22:33:16.305Z,98807.20
2022-11-13T22:36:06.896Z,98805.90
2022-11-13T22:38:54.953Z,98802.48
2022-11-13T22:41:42.875Z,98798.30
2022-11-13T22:44:51.363Z,98801.28
2022-11-13T22:47:38.489Z,98800.44
2022-11-13T22:50:26.462Z,98805.26
2022-11-13T22:53:14.371Z,98800.85
2022-11-13T22:56:04.306Z,98799.95
2022-11-13T22:58:54.068Z,98792.23
2022-11-13T23:01:43.009Z,98788.99
2022-11-13T23:04:30.887Z,98789.13
2022-11-13T23:07:19.195Z,98786.92
2022-11-13T23:10:09.976Z,98787.75
2022-11-13T23:12:58.143Z,98790.17
2022-11-13T23:15:46.166Z,98789.52
2022-11-13T23:18:34.646Z,98791.73
2022-11-13T23:21:24.786Z,98789.19
2022-11-13T23:24:14.845Z,98791.33
2022-11-13T23:27:03.112Z,98789.61
2022-11-13T23:29:50.623Z,98789.88
2022-11-13T23:32:38.856Z,98793.38
2022-11-13T23:35:27.015Z,98793.16
2022-11-13T23:38:14.993Z,98795.15
2022-11-13T23:41:03.267Z,98793.69
2022-11-13T23:46:59.294Z,98787.45
2022-11-13T23:49:47.114Z,98785.15
2022-11-13T23:52:35.560Z,98784.05
2022-11-13T23:55:23.405Z,98788.03
2022-11-13T23:58:13.836Z,98786.88
